^^
Saratoga-Weather Station Historical Data
Daily Summary for January 29, 2020 Units:  English    Metric   Both
Daily Weekly Monthly Yearly Custom
  High: Low: Average:
Temperature: 74.3 °F 32 °F 66.7 °F
Dew Point: 46.8 °F 32 °F 43.5 °F
Humidity: 63% % 43%
Wind Speed: 8.9mph 0mph 2.2mph
Wind Gust: 14mph - -
Wind- - ESE
Pressure: 30.3 in 0 in -
Precipitation: 0 in    
Historical Graphs
 
 
Tabular Data for January 29, 2020
Time Temperature Dew Point Pressure Wind Wind Speed Wind Gust Humidity Rainfall Rate (Hourly) solar
00:05 58.3 °F 40.3 °F 30.3 in ESE 0.9 mph 2 mph 51% 0 in 0 W/m2
00:10 58.3 °F 39.2 °F 30.3 in NNE 0.9 mph 1 mph 49% 0 in 0 W/m2
00:30 57.7 °F 40.6 °F 30.3 in WSW 0.9 mph 2 mph 53% 0 in 0 W/m2
00:35 57.2 °F 41.2 °F 30.3 in SW 2 mph 3 mph 55% 0 in 0 W/m2
00:40 56.7 °F 41.2 °F 30.3 in Calm   1 mph 56% 0 in 0 W/m2
00:45 56.1 °F 41.2 °F 30.3 in SW 0.9 mph 1 mph 57% 0 in 0 W/m2
00:50 55.8 °F 40.8 °F 30.3 in Calm     57% 0 in 0 W/m2
00:55 55.2 °F 41.2 °F 30.3 in Calm   1 mph 59% 0 in 0 W/m2
01:00 55 °F 40.5 °F 30.3 in SSE 0.9 mph 1 mph 58% 0 in 0 W/m2
01:10 54.7 °F 40.6 °F 30.3 in Calm   2 mph 59% 0 in 0 W/m2
01:15 54.3 °F 40.8 °F 30.3 in SSE 0.9 mph 2 mph 60% 0 in 0 W/m2
01:20 54 °F 40.5 °F 30.3 in Calm   1 mph 60% 0 in 0 W/m2
07:35 53.2 °F 41 °F 30.3 in Calm   2 mph 63% 0 in 39 W/m2
07:40 53.4 °F 41.2 °F 30.3 in NNE 0.9 mph 3 mph 63% 0 in 167 W/m2
07:45 54 °F 41.2 °F 30.3 in NNE 0.9 mph 4 mph 62% 0 in 227 W/m2
07:50 54.7 °F 41.5 °F 30.3 in North 0.9 mph 2 mph 61% 0 in 244 W/m2
07:55 55.2 °F 42.1 °F 30.3 in Calm   4 mph 61% 0 in 267 W/m2
08:00 56.3 °F 42.1 °F 30.3 in ESE 2.9 mph 3 mph 59% 0 in 279 W/m2
08:05 56.8 °F 42.6 °F 30.3 in Calm   4 mph 59% 0 in 295 W/m2
08:10 57.2 °F 42.6 °F 30.3 in East 2 mph 2 mph 58% 0 in 309 W/m2
08:19 57.9 °F 42.8 °F 30.3 in ENE 0.9 mph 5 mph 57% 0 in 323 W/m2
08:23 32 °F 32 °F 0 in Calm     % 0 in W/m2
08:32 32 °F 32 °F 0 in Calm     % 0 in W/m2
08:42 32 °F 32 °F 0 in Calm     % 0 in W/m2
08:46 59.5 °F 43.9 °F 30.3 in East 2.9 mph 4 mph 56% 0 in 408 W/m2
08:50 60.1 °F 43.9 °F 30.3 in ENE 4.9 mph 8 mph 55% 0 in 418 W/m2
08:55 60.4 °F 43.7 °F 30.3 in SE 2 mph 6 mph 54% 0 in 432 W/m2
09:01 61 °F 44.2 °F 30.3 in NW 0.9 mph 3 mph 54% 0 in 446 W/m2
09:06 61.2 °F 43.3 °F 30.3 in ENE 2 mph 8 mph 52% 0 in 461 W/m2
09:11 61.3 °F 44.1 °F 30.3 in ENE 2 mph 2 mph 53% 0 in 476 W/m2
09:16 62.2 °F 45 °F 30.3 in ENE 4.9 mph 9 mph 53% 0 in 490 W/m2
09:21 62.8 °F 43.9 °F 30.3 in North 0.9 mph 7 mph 50% 0 in 501 W/m2
09:26 63.1 °F 44.8 °F 30.3 in ENE 4 mph 4 mph 51% 0 in 517 W/m2
09:31 63.5 °F 44.6 °F 30.3 in East 0.9 mph 8 mph 50% 0 in 527 W/m2
09:36 63.9 °F 44.8 °F 30.3 in SE 2.9 mph 7 mph 50% 0 in 540 W/m2
09:41 64 °F 45 °F 30.3 in ESE 8.1 mph 8 mph 50% 0 in 554 W/m2
09:46 64 °F 44.4 °F 30.3 in ENE 4 mph 10 mph 49% 0 in 564 W/m2
09:51 64 °F 44.4 °F 30.3 in NE 2.9 mph 5 mph 49% 0 in 573 W/m2
09:56 64.8 °F 45.7 °F 30.3 in East 8.1 mph 9 mph 50% 0 in 547 W/m2
10:01 65.1 °F 44.4 °F 30.3 in East 2.9 mph 7 mph 47% 0 in 69 W/m2
10:06 65.3 °F 44.6 °F 30.3 in NE 2 mph 8 mph 47% 0 in 118 W/m2
10:11 65.7 °F 43.7 °F 30.3 in North 4 mph 6 mph 45% 0 in 622 W/m2
10:16 65.7 °F 44.2 °F 30.3 in ENE 2.9 mph 10 mph 46% 0 in 635 W/m2
10:21 65.7 °F 44.2 °F 30.3 in East 2.9 mph 12 mph 46% 0 in 645 W/m2
10:26 65.7 °F 43.2 °F 30.3 in ENE 2.9 mph 8 mph 44% 0 in 652 W/m2
10:31 65.8 °F 43.9 °F 30.3 in ENE 2.9 mph 12 mph 45% 0 in 663 W/m2
10:36 66.4 °F 44.4 °F 30.3 in ENE 0.9 mph 11 mph 45% 0 in 691 W/m2
10:41 66.9 °F 45 °F 30.3 in SE 0.9 mph 6 mph 45% 0 in 696 W/m2
10:46 67.1 °F 44.4 °F 30.3 in NE 2 mph 9 mph 44% 0 in 708 W/m2
10:51 66.9 °F 44.2 °F 30.3 in ENE 6 mph 6 mph 44% 0 in 714 W/m2
10:56 67.3 °F 44.6 °F 30.3 in ESE 8.1 mph 14 mph 44% 0 in 731 W/m2
11:01 67.5 °F 44.8 °F 30.3 in SE 4 mph 6 mph 44% 0 in 719 W/m2
11:07 67.5 °F 43.5 °F 30.3 in ENE 4 mph 9 mph 42% 0 in 735 W/m2
11:12 66.9 °F 43.7 °F 30.3 in SE 2.9 mph 7 mph 43% 0 in 749 W/m2
11:17 66.9 °F 44.2 °F 30.3 in SE 2 mph 3 mph 44% 0 in 752 W/m2
11:22 66.9 °F 43.7 °F 30.3 in NE 2.9 mph 9 mph 43% 0 in 784 W/m2
11:27 66.7 °F 44.8 °F 30.3 in ENE 0.9 mph 8 mph 45% 0 in 814 W/m2
11:32 67.3 °F 45.1 °F 30.3 in ESE 4 mph 5 mph 45% 0 in 812 W/m2
11:37 67.3 °F 44.1 °F 30.3 in ENE 2.9 mph 12 mph 43% 0 in 230 W/m2
11:42 67.5 °F 44.2 °F 30.3 in ENE 0.9 mph 8 mph 43% 0 in 814 W/m2
11:47 68.2 °F 44.8 °F 30.3 in ESE 2.9 mph 11 mph 43% 0 in 828 W/m2
11:52 68.9 °F 44.8 °F 30.3 in SSE 0.9 mph 5 mph 42% 0 in 837 W/m2
11:57 69.3 °F 44.6 °F 30.3 in NE 4 mph 14 mph 41% 0 in 830 W/m2
12:02 68.7 °F 43.3 °F 30.3 in ENE 4.9 mph 9 mph 40% 0 in 837 W/m2
12:07 68.5 °F 43.3 °F 30.3 in ESE 0.9 mph 14 mph 40% 0 in 860 W/m2
12:12 68.9 °F 45.5 °F 30.3 in East 4.9 mph 6 mph 43% 0 in 860 W/m2
12:17 69.4 °F 43.3 °F 30.3 in ENE 6 mph 6 mph 39% 0 in 856 W/m2
12:22 69.3 °F 43.9 °F 30.3 in SSE 4 mph 9 mph 40% 0 in 891 W/m2
12:27 69.6 °F 44.2 °F 30.3 in SE 2.9 mph 10 mph 40% 0 in 881 W/m2
12:32 70 °F 44.6 °F 30.3 in ENE 4 mph 8 mph 40% 0 in 882 W/m2
12:37 70.3 °F 44.2 °F 30.3 in SSE 2 mph 5 mph 39% 0 in 884 W/m2
12:42 70.5 °F 43.7 °F 30.3 in NE 2.9 mph 7 mph 38% 0 in 879 W/m2
12:47 70.7 °F 44.6 °F 30.2 in SE 4 mph 4 mph 39% 0 in 884 W/m2
12:52 70.9 °F 44.1 °F 30.2 in Calm   7 mph 38% 0 in 886 W/m2
12:57 70.9 °F 44.1 °F 30.2 in ESE 8.1 mph 8 mph 38% 0 in 888 W/m2
13:02 70.9 °F 44.1 °F 30.2 in ESE 6 mph 12 mph 38% 0 in 895 W/m2
13:07 70.9 °F 44.1 °F 30.2 in SW 2 mph 4 mph 38% 0 in 896 W/m2
13:12 71.1 °F 44.2 °F 30.2 in NE 0.9 mph 12 mph 38% 0 in 926 W/m2
13:17 70.5 °F 43 °F 30.2 in NE 4 mph 10 mph 37% 0 in 188 W/m2
13:22 69.6 °F 42.8 °F 30.2 in ESE 0.9 mph 6 mph 38% 0 in 241 W/m2
13:27 69.6 °F 45 °F 30.2 in SE 2 mph 7 mph 41% 0 in 858 W/m2
13:32 70.3 °F 46.8 °F 30.2 in North 2 mph 3 mph 43% 0 in 914 W/m2
13:37 71.1 °F 44.2 °F 30.2 in SE 0.9 mph 1 mph 38% 0 in 928 W/m2
13:43 71.8 °F 45.5 °F 30.2 in East 4.9 mph 8 mph 39% 0 in 942 W/m2
13:48 71.8 °F 43.3 °F 30.2 in ENE 4 mph 8 mph 36% 0 in 953 W/m2
13:53 71.4 °F 43.7 °F 30.2 in SSE 2 mph 11 mph 37% 0 in 891 W/m2
13:58 71.2 °F 45 °F 30.2 in NE 2.9 mph 6 mph 39% 0 in 900 W/m2
14:03 71.4 °F 45.1 °F 30.2 in NE 4 mph 11 mph 39% 0 in 918 W/m2
14:08 71.8 °F 45.5 °F 30.2 in East 0.9 mph 8 mph 39% 0 in 1037 W/m2
14:13 72.1 °F 45.1 °F 30.2 in SE 2 mph 10 mph 38% 0 in 830 W/m2
14:18 72.1 °F 43.7 °F 30.2 in NW 0.9 mph 4 mph 36% 0 in 960 W/m2
14:23 72.5 °F 44.1 °F 30.2 in East 2 mph 7 mph 36% 0 in 1041 W/m2
14:28 72.9 °F 45.1 °F 30.2 in WNW 0.9 mph 6 mph 37% 0 in 1005 W/m2
14:33 72.9 °F 44.4 °F 30.2 in NE 4 mph 10 mph 36% 0 in 993 W/m2
14:38 71.8 °F 44.1 °F 30.2 in ESE 2.9 mph 8 mph 37% 0 in 1039 W/m2
14:43 71.8 °F 43.3 °F 30.2 in ESE 8.1 mph 10 mph 36% 0 in 937 W/m2
14:48 72 °F 43.5 °F 30.2 in North 2.9 mph 6 mph 36% 0 in 872 W/m2
14:53 72.3 °F 43.2 °F 30.2 in NE 0.9 mph 5 mph 35% 0 in 867 W/m2
14:58 72.1 °F 43.7 °F 30.2 in NE 2.9 mph 7 mph 36% 0 in 872 W/m2
15:03 72.1 °F 44.4 °F 30.2 in NNE 2 mph 8 mph 37% 0 in 870 W/m2
15:08 72.7 °F 44.2 °F 30.2 in ENE 2.9 mph 10 mph 36% 0 in 853 W/m2
15:13 72.7 °F 43.5 °F 30.2 in NNE 4.9 mph 9 mph 35% 0 in 851 W/m2
15:18 72.9 °F 44.4 °F 30.2 in East 4 mph 7 mph 36% 0 in 837 W/m2
15:23 72.9 °F 44.4 °F 30.2 in East 0.9 mph 8 mph 36% 0 in 835 W/m2
15:28 73 °F 45.9 °F 30.2 in East 6 mph 6 mph 38% 0 in 816 W/m2
15:33 73 °F 45.1 °F 30.2 in NE 4.9 mph 8 mph 37% 0 in 726 W/m2
15:38 73 °F 43.7 °F 30.2 in NE 0.9 mph 5 mph 35% 0 in 812 W/m2
15:44 73.2 °F 43.9 °F 30.2 in ESE 2 mph 6 mph 35% 0 in 807 W/m2
15:49 73.4 °F 44.1 °F 30.2 in ENE 0.9 mph 7 mph 35% 0 in 784 W/m2
15:54 73.2 °F 44.6 °F 30.2 in SSE 6 mph 8 mph 36% 0 in 793 W/m2
15:59 73.2 °F 43.9 °F 30.2 in ENE 2 mph 7 mph 35% 0 in 777 W/m2
16:04 73.2 °F 43.9 °F 30.2 in ESE 2 mph 3 mph 35% 0 in 775 W/m2
16:09 73.4 °F 45.5 °F 30.2 in East 0.9 mph 9 mph 37% 0 in 752 W/m2
16:14 73.6 °F 44.2 °F 30.2 in NE 2.9 mph 13 mph 35% 0 in 749 W/m2
16:19 73.8 °F 45.9 °F 30.2 in SSE 2.9 mph 6 mph 37% 0 in 733 W/m2
16:24 73.8 °F 45.1 °F 30.2 in ESE 4 mph 6 mph 36% 0 in 726 W/m2
16:29 73.9 °F 44.6 °F 30.2 in NE 2.9 mph 5 mph 35% 0 in 719 W/m2
16:34 74.1 °F 44.8 °F 30.2 in ENE 2 mph 2 mph 35% 0 in 726 W/m2
16:39 74.3 °F 44.1 °F 30.2 in NE 4.9 mph 9 mph 34% 0 in 751 W/m2
16:44 73.4 °F 43.3 °F 30.2 in SE 2 mph 10 mph 34% 0 in 151 W/m2
16:49 72.9 °F 43.5 °F 30.2 in NE 2.9 mph 5 mph 35% 0 in 686 W/m2
16:54 73 °F 43.7 °F 30.2 in WNW 2 mph 11 mph 35% 0 in 659 W/m2
16:59 73 °F 43.7 °F 30.2 in ENE 4 mph 9 mph 35% 0 in 652 W/m2
17:04 73.2 °F 44.6 °F 30.2 in NW 4 mph 11 mph 36% 0 in 636 W/m2
17:09 73.6 °F 43.5 °F 30.2 in NW 4 mph 14 mph 34% 0 in 626 W/m2
17:14 73.8 °F 44.4 °F 30.2 in East 0.9 mph 5 mph 35% 0 in 622 W/m2
17:20 74.1 °F 43.9 °F 30.2 in NE 2.9 mph 11 mph 34% 0 in 598 W/m2
17:25 73.9 °F 44.6 °F 30.2 in East 4 mph 10 mph 35% 0 in 580 W/m2
17:30 73.8 °F 44.4 °F 30.2 in North 0.9 mph 11 mph 35% 0 in 573 W/m2
17:35 73.6 °F 45 °F 30.2 in NNW 2 mph 7 mph 36% 0 in 559 W/m2
17:40 73.6 °F 44.2 °F 30.2 in East 2.9 mph 5 mph 35% 0 in 541 W/m2
17:45 73.6 °F 43.5 °F 30.2 in Calm   7 mph 34% 0 in 531 W/m2
17:50 73.6 °F 44.2 °F 30.2 in ENE 0.9 mph 6 mph 35% 0 in 519 W/m2
17:55 73.6 °F 43.5 °F 30.2 in SSE 2 mph 3 mph 34% 0 in 508 W/m2
18:00 73.9 °F 44.6 °F 30.2 in ENE 2.9 mph 6 mph 35% 0 in 492 W/m2
18:05 74.1 °F 45.5 °F 30.2 in East 0.9 mph 3 mph 36% 0 in 480 W/m2
18:10 73.8 °F 42.8 °F 30.2 in SE 2.9 mph 10 mph 33% 0 in 454 W/m2
18:15 73.2 °F 43.2 °F 30.2 in East 6 mph 6 mph 34% 0 in 450 W/m2
18:20 73.2 °F 43.2 °F 30.2 in NE 2.9 mph 13 mph 34% 0 in 431 W/m2
18:25 73.6 °F 43.5 °F 30.2 in NE 4 mph 4 mph 34% 0 in 394 W/m2
18:30 73.8 °F 45.1 °F 30.1 in ESE 0.9 mph 4 mph 36% 0 in 360 W/m2
18:35 73.9 °F 43.9 °F 30.2 in East 4 mph 9 mph 34% 0 in 334 W/m2
18:40 73.8 °F 43.7 °F 30.2 in ENE 8.1 mph 12 mph 34% 0 in 309 W/m2
18:45 73.6 °F 43.5 °F 30.2 in ESE 2 mph 9 mph 34% 0 in 290 W/m2
18:50 73.6 °F 43.5 °F 30.1 in ESE 4 mph 4 mph 34% 0 in 265 W/m2
18:55 73.6 °F 43.5 °F 30.1 in NE 2.9 mph 9 mph 34% 0 in 241 W/m2
19:00 73.6 °F 43.5 °F 30.1 in ENE 2 mph 4 mph 34% 0 in 234 W/m2
19:05 73.4 °F 44.1 °F 30.1 in South 2.9 mph 4 mph 35% 0 in 241 W/m2
19:10 73.6 °F 44.2 °F 30.1 in ESE 2 mph 3 mph 35% 0 in 257 W/m2
19:15 73.6 °F 44.2 °F 30.1 in ESE 2 mph 4 mph 35% 0 in 271 W/m2
19:20 73.4 °F 44.1 °F 30.1 in East 0.9 mph 5 mph 35% 0 in 269 W/m2
19:25 73 °F 43 °F 30.1 in ENE 8.9 mph 12 mph 34% 0 in 253 W/m2
19:30 72.7 °F 42.6 °F 30.1 in ENE 0.9 mph 3 mph 34% 0 in 237 W/m2
19:35 72.7 °F 43.5 °F 30.1 in ENE 2.9 mph 12 mph 35% 0 in 221 W/m2
19:40 72.5 °F 43.3 °F 30.1 in NE 2 mph 3 mph 35% 0 in 188 W/m2
19:45 72.1 °F 43 °F 30.1 in South 2 mph 9 mph 35% 0 in 156 W/m2
19:50 72 °F 43.5 °F 30.1 in East 2.9 mph 3 mph 36% 0 in 146 W/m2
19:55 71.8 °F 42.6 °F 30.1 in East 6.9 mph 9 mph 35% 0 in 142 W/m2
20:00 71.6 °F 43.9 °F 30.1 in East 8.1 mph 8 mph 37% 0 in 142 W/m2
20:05 71.4 °F 43.2 °F 30.1 in ESE 2 mph 11 mph 36% 0 in 132 W/m2
20:10 71.2 °F 43 °F 30.1 in SE 0.9 mph 3 mph 36% 0 in 120 W/m2
20:15 71.1 °F 43.5 °F 30.1 in East 2 mph 11 mph 37% 0 in 104 W/m2
20:20 70.9 °F 43.3 °F 30.1 in ENE 2.9 mph 5 mph 37% 0 in 91 W/m2
20:25 70.5 °F 43.7 °F 30.1 in ESE 2.9 mph 8 mph 38% 0 in 81 W/m2
20:30 70.3 °F 42.8 °F 30.1 in ESE 2 mph 8 mph 37% 0 in 72 W/m2
20:35 70.2 °F 43.3 °F 30.1 in ENE 0.9 mph 4 mph 38% 0 in 58 W/m2
20:40 69.6 °F 42.8 °F 30.1 in ESE 2 mph 5 mph 38% 0 in 47 W/m2
20:45 69.4 °F 42.8 °F 30.1 in ENE 0.9 mph 3 mph 38% 0 in 46 W/m2
20:50 69.3 °F 43.2 °F 30.1 in East 2.9 mph 3 mph 39% 0 in 37 W/m2
20:56 68.7 °F 44.1 °F 30.1 in ESE 0.9 mph 2 mph 41% 0 in 32 W/m2
21:01 68.4 °F 43.2 °F 30.1 in Calm   3 mph 40% 0 in 26 W/m2
21:06 68.2 °F 43 °F 30.1 in Calm   2 mph 40% 0 in 21 W/m2
21:11 67.6 °F 43.7 °F 30.1 in ESE 0.9 mph 1 mph 42% 0 in 14 W/m2
21:16 67.3 °F 42.8 °F 30.1 in Calm   2 mph 41% 0 in 11 W/m2
21:21 66.7 °F 43.5 °F 30.1 in NE 2.9 mph 3 mph 43% 0 in 9 W/m2
21:26 66.4 °F 43.2 °F 30.1 in East 0.9 mph 2 mph 43% 0 in 7 W/m2
21:31 66 °F 42.8 °F 30.1 in SE 0.9 mph 2 mph 43% 0 in 5 W/m2
21:36 65.7 °F 43.2 °F 30.1 in SE 0.9 mph 1 mph 44% 0 in 0 W/m2
21:41 65.1 °F 43.9 °F 30.1 in Calm   1 mph 46% 0 in 0 W/m2
21:46 64.8 °F 43.5 °F 30.1 in Calm     46% 0 in 0 W/m2
21:51 64.2 °F 43.5 °F 30.1 in Calm   1 mph 47% 0 in 0 W/m2
21:56 63.9 °F 43.2 °F 30.1 in Calm   1 mph 47% 0 in 0 W/m2
22:01 63.3 °F 43.3 °F 30.1 in Calm     48% 0 in 0 W/m2
22:06 63 °F 43.5 °F 30.1 in ESE 0.9 mph 1 mph 49% 0 in 0 W/m2
22:11 62.4 °F 44.1 °F 30.2 in ESE 0.9 mph 2 mph 51% 0 in 0 W/m2
22:16 62.1 °F 43.7 °F 30.2 in Calm   1 mph 51% 0 in 0 W/m2
22:21 61.5 °F 44.2 °F 30.1 in ESE 0.9 mph 1 mph 53% 0 in 0 W/m2
22:26 61.2 °F 43.9 °F 30.2 in Calm     53% 0 in 0 W/m2
22:31 60.8 °F 44.6 °F 30.2 in Calm   1 mph 55% 0 in 0 W/m2
22:36 60.3 °F 44.4 °F 30.2 in Calm   1 mph 56% 0 in 0 W/m2
22:41 59.9 °F 44.2 °F 30.2 in Calm     56% 0 in 0 W/m2
22:46 59.5 °F 43.9 °F 30.2 in Calm     56% 0 in 0 W/m2
22:51 59.2 °F 43.9 °F 30.2 in Calm   1 mph 57% 0 in 0 W/m2
22:56 58.6 °F 43.5 °F 30.2 in Calm     57% 0 in 0 W/m2
23:01 58.5 °F 43.3 °F 30.2 in ESE 0.9 mph 2 mph 57% 0 in 0 W/m2
23:06 58.3 °F 43.2 °F 30.2 in Calm   1 mph 57% 0 in 0 W/m2
23:11 57.9 °F 43.2 °F 30.2 in ESE 0.9 mph 2 mph 58% 0 in 0 W/m2
23:16 57.7 °F 43.9 °F 30.2 in ESE 0.9 mph 2 mph 60% 0 in 0 W/m2
23:21 57.4 °F 43.7 °F 30.2 in Calm     60% 0 in 0 W/m2
23:26 57 °F 43.7 °F 30.2 in SW 0.9 mph 3 mph 61% 0 in 0 W/m2
23:31 57 °F 43.7 °F 30.2 in Calm     61% 0 in 0 W/m2
23:37 56.8 °F 43.9 °F 30.2 in Calm   1 mph 62% 0 in 0 W/m2
23:42 56.7 °F 43.7 °F 30.2 in Calm   1 mph 62% 0 in 0 W/m2
23:47 56.5 °F 43.7 °F 30.2 in SW 0.9 mph 1 mph 62% 0 in 0 W/m2
23:52 56.1 °F 43.3 °F 30.2 in Calm     62% 0 in 0 W/m2
23:57 55.9 °F 43.5 °F 30.2 in Calm     63% 0 in 0 W/m2
Juneau County Weather
Compliments of Weather Underground - 2 mb